Time;durP1;ratioP1;P1;durP2;ratioP2;P2;SDS_P1;SDS_P2;PMS_P1;PMS_P2;Temp;Humidity;BMP_temperature;BMP_pressure;BME280_temperature;BME280_humidity;BME280_pressure;Samples;Min_cycle;Max_cycle;Signal;HPM_P1;HPM_P2
2022/02/26 00:00:36;;;;;;;;;44.50;36.75;;;;;-149.00;100.00;66333.84;5101932;27;45266;-74
2022/02/26 00:03:01;;;;;;;;;52.75;42.50;;;;;-149.00;100.00;66333.84;5101805;27;46283;-74
2022/02/26 00:05:27;;;;;;;;;52.50;42.50;;;;;-149.00;100.00;66333.84;5101797;27;45421;-74
2022/02/26 00:07:52;;;;;;;;;50.50;44.25;;;;;-149.00;100.00;66333.84;5101947;27;45307;-74
2022/02/26 00:10:17;;;;;;;;;56.00;46.00;;;;;-149.00;100.00;66333.84;5101576;27;45608;-74
2022/02/26 00:12:43;;;;;;;;;46.75;41.75;;;;;-149.00;100.00;66333.84;5101556;27;46119;-74
2022/02/26 00:15:08;;;;;;;;;48.00;39.25;;;;;-149.00;100.00;66333.84;5101676;27;45282;-73
2022/02/26 00:17:35;;;;;;;;;51.50;42.75;;;;;-149.00;100.00;66333.84;5101567;27;45353;-74
2022/02/26 00:20:02;;;;;;;;;54.50;45.50;;;;;-149.00;100.00;66333.84;5101191;27;45456;-74
2022/02/26 00:22:27;;;;;;;;;54.50;45.50;;;;;-149.00;100.00;66333.84;5101473;27;46389;-74
2022/02/26 00:24:52;;;;;;;;;53.75;45.25;;;;;-149.00;100.00;66333.84;5101042;27;45345;-73
2022/02/26 00:27:18;;;;;;;;;48.25;41.50;;;;;-149.00;100.00;66333.84;5101565;27;45297;-73
2022/02/26 00:29:43;;;;;;;;;52.00;42.75;;;;;-149.00;100.00;66333.84;5101410;27;45433;-74
2022/02/26 00:32:09;;;;;;;;;55.00;47.00;;;;;-149.00;100.00;66333.84;5101207;27;45313;-74
2022/02/26 00:34:35;;;;;;;;;54.00;44.50;;;;;-149.00;100.00;66333.84;5101186;27;45263;-74
2022/02/26 00:37:00;;;;;;;;;53.25;44.00;;;;;-149.00;100.00;66333.84;5101379;27;45409;-74
2022/02/26 00:39:26;;;;;;;;;44.50;39.75;;;;;-149.00;100.00;66333.84;5100689;27;45459;-74
2022/02/26 00:41:51;;;;;;;;;47.50;42.00;;;;;-149.00;100.00;66333.84;5101044;27;45385;-73
2022/02/26 00:44:17;;;;;;;;;51.75;44.50;;;;;-149.00;100.00;66333.84;5101283;27;45324;-73
2022/02/26 00:46:45;;;;;;;;;55.75;44.50;;;;;-149.00;100.00;66333.84;5101243;27;45373;-73
2022/02/26 00:51:56;;;;;;;;;51.75;43.25;;;;;-149.00;100.00;66333.84;5100710;27;45338;-74
2022/02/26 00:54:21;;;;;;;;;53.25;45.50;;;;;-149.00;100.00;66333.84;5100849;27;45342;-74
2022/02/26 00:56:47;;;;;;;;;55.75;44.00;;;;;-149.00;100.00;66333.84;5101151;27;45251;-74
2022/02/26 00:59:12;;;;;;;;;49.50;41.25;;;;;-149.00;100.00;66333.84;5100924;27;45489;-74
2022/02/26 01:01:37;;;;;;;;;53.75;45.75;;;;;-149.00;100.00;66333.84;5100711;27;45423;-74
2022/02/26 01:04:04;;;;;;;;;49.50;42.00;;;;;-149.00;100.00;66333.84;5100525;27;45256;-74
2022/02/26 01:06:29;;;;;;;;;58.00;47.25;;;;;-149.00;100.00;66333.84;5100865;27;45330;-73
2022/02/26 01:08:55;;;;;;;;;59.50;46.50;;;;;-149.00;100.00;66333.84;5100784;27;45207;-75
2022/02/26 01:11:21;;;;;;;;;54.50;44.75;;;;;-149.00;100.00;66333.84;5100567;27;45276;-74
2022/02/26 01:13:46;;;;;;;;;55.50;43.75;;;;;-149.00;100.00;66333.84;5100683;27;45417;-74
2022/02/26 01:16:12;;;;;;;;;57.50;47.75;;;;;-149.00;100.00;66333.84;5100895;27;45296;-73
2022/02/26 01:18:37;;;;;;;;;56.75;44.75;;;;;-149.00;100.00;66333.84;5100361;27;45692;-74
2022/02/26 01:21:03;;;;;;;;;54.50;47.50;;;;;-149.00;100.00;66333.84;5100399;27;45361;-73
2022/02/26 01:23:28;;;;;;;;;56.75;45.50;;;;;-149.00;100.00;66333.84;5100473;27;45387;-74
2022/02/26 01:25:54;;;;;;;;;54.50;45.00;;;;;-149.00;100.00;66333.84;5100467;27;45497;-73
2022/02/26 01:28:20;;;;;;;;;52.75;44.25;;;;;-149.00;100.00;66333.84;5100553;27;45336;-73
2022/02/26 01:30:46;;;;;;;;;52.50;42.00;;;;;-149.00;100.00;66333.84;5100176;27;46110;-74
2022/02/26 01:33:11;;;;;;;;;46.25;41.00;;;;;-149.00;100.00;66333.84;5100346;27;45303;-74
2022/02/26 01:35:37;;;;;;;;;54.00;42.50;;;;;-149.00;100.00;66333.84;5100376;27;45366;-74
2022/02/26 01:38:03;;;;;;;;;53.25;41.00;;;;;-149.00;100.00;66333.84;5100226;27;45398;-74
2022/02/26 01:40:28;;;;;;;;;48.00;40.00;;;;;-149.00;100.00;66333.84;5100226;27;45378;-73
2022/02/26 01:42:54;;;;;;;;;48.50;41.00;;;;;-149.00;100.00;66333.84;5100385;27;45256;-74
2022/02/26 01:45:20;;;;;;;;;37.25;35.75;;;;;-149.00;100.00;66333.84;5100497;27;45761;-73
2022/02/26 01:47:45;;;;;;;;;40.50;35.25;;;;;-149.00;100.00;66333.84;5081865;27;45520;-74
2022/02/26 01:50:13;;;;;;;;;34.00;32.25;;;;;-149.00;100.00;66333.84;5099968;27;45279;-73
2022/02/26 01:52:40;;;;;;;;;35.25;35.25;;;;;-149.00;100.00;66333.84;5100184;27;45272;-74
2022/02/26 01:55:06;;;;;;;;;37.25;36.00;;;;;-149.00;100.00;66333.84;5099961;27;45303;-74
2022/02/26 01:57:31;;;;;;;;;37.50;34.00;;;;;-149.00;100.00;66333.84;5099912;27;45322;-74
2022/02/26 01:59:58;;;;;;;;;43.50;38.75;;;;;-149.00;100.00;66333.84;5100003;27;45243;-74
2022/02/26 02:02:23;;;;;;;;;41.50;37.75;;;;;-149.00;100.00;66333.84;5100057;27;45351;-74
2022/02/26 02:04:48;;;;;;;;;39.00;36.50;;;;;-149.00;100.00;66333.84;5099864;27;45259;-74
2022/02/26 02:07:14;;;;;;;;;38.00;35.50;;;;;-149.00;100.00;66333.84;5099897;27;45423;-74
2022/02/26 02:09:42;;;;;;;;;40.75;38.75;;;;;-149.00;100.00;66333.84;5099583;27;46203;-73
2022/02/26 02:12:09;;;;;;;;;43.50;39.00;;;;;-149.00;100.00;66333.84;5099785;27;45311;-74
2022/02/26 02:14:34;;;;;;;;;46.50;40.25;;;;;-149.00;100.00;66333.84;5099989;27;45409;-73
2022/02/26 02:17:01;;;;;;;;;53.00;43.75;;;;;-149.00;100.00;66333.84;5103076;27;45595;-74
2022/02/26 02:19:27;;;;;;;;;54.50;44.00;;;;;-149.00;100.00;66333.84;5102871;27;45405;-74
2022/02/26 02:21:52;;;;;;;;;45.75;41.00;;;;;-149.00;100.00;66333.84;5103383;27;45335;-74
2022/02/26 02:24:18;;;;;;;;;50.75;40.00;;;;;-149.00;100.00;66333.84;5103194;27;45330;-73
2022/02/26 02:26:45;;;;;;;;;36.50;31.50;;;;;-149.00;100.00;66333.84;5103236;27;45342;-74
2022/02/26 02:29:10;;;;;;;;;28.50;24.75;;;;;-149.00;100.00;66333.84;5103417;27;46116;-73
2022/02/26 02:31:36;;;;;;;;;24.25;21.25;;;;;-149.00;100.00;66333.84;5103108;27;45437;-73
2022/02/26 02:34:01;;;;;;;;;18.25;18.00;;;;;-149.00;100.00;66333.84;5103344;27;45339;-73
2022/02/26 02:36:27;;;;;;;;;26.00;21.75;;;;;-149.00;100.00;66333.84;5103222;27;45374;-74
2022/02/26 02:38:53;;;;;;;;;25.75;21.25;;;;;-149.00;100.00;66333.84;5102926;27;45479;-73
2022/02/26 02:41:18;;;;;;;;;18.75;18.75;;;;;-149.00;100.00;66333.84;5103031;27;45323;-73
2022/02/26 02:43:44;;;;;;;;;29.50;27.25;;;;;-149.00;100.00;66333.84;5103222;27;45314;-74
2022/02/26 02:46:09;;;;;;;;;30.50;29.25;;;;;-149.00;100.00;66333.84;5103103;27;45311;-74
2022/02/26 02:48:36;;;;;;;;;34.50;29.75;;;;;-149.00;100.00;66333.84;5084503;27;47632;-74
2022/02/26 02:51:02;;;;;;;;;31.00;30.00;;;;;-149.00;100.00;66333.84;5102850;27;45246;-74
2022/02/26 02:53:27;;;;;;;;;21.75;21.25;;;;;-149.00;100.00;66333.84;5103004;27;45319;-74
2022/02/26 02:55:53;;;;;;;;;28.50;26.00;;;;;-149.00;100.00;66333.84;5102790;27;45276;-74
2022/02/26 02:58:20;;;;;;;;;30.50;24.00;;;;;-149.00;100.00;66333.84;5102775;27;45311;-74
2022/02/26 03:00:45;;;;;;;;;40.25;33.75;;;;;-149.00;100.00;66333.84;5102670;27;45253;-74
2022/02/26 03:03:11;;;;;;;;;26.25;26.25;;;;;-149.00;100.00;66333.84;5084518;27;45308;-74
2022/02/26 03:05:36;;;;;;;;;22.25;22.00;;;;;-149.00;100.00;66333.84;5102563;27;45297;-74
2022/02/26 03:08:03;;;;;;;;;20.50;20.50;;;;;-149.00;100.00;66333.84;5102562;27;45424;-74
2022/02/26 03:10:28;;;;;;;;;31.25;26.75;;;;;-149.00;100.00;66333.84;5102798;27;45381;-74
2022/02/26 03:12:54;;;;;;;;;28.00;27.50;;;;;-149.00;100.00;66333.84;5102556;27;45513;-74
2022/02/26 03:15:21;;;;;;;;;32.75;28.25;;;;;-149.00;100.00;66333.84;5102641;27;45416;-74
2022/02/26 03:17:47;;;;;;;;;34.75;29.50;;;;;-149.00;100.00;66333.84;5102429;27;45672;-74
2022/02/26 03:20:12;;;;;;;;;34.25;32.25;;;;;-149.00;100.00;66333.84;5102320;27;45295;-74
2022/02/26 03:22:38;;;;;;;;;49.00;42.25;;;;;-149.00;100.00;66333.84;5102599;27;45284;-73
2022/02/26 03:25:04;;;;;;;;;65.75;52.25;;;;;-149.00;100.00;66333.84;5102336;27;45350;-74
2022/02/26 03:27:29;;;;;;;;;59.00;48.00;;;;;-149.00;100.00;66333.84;5102254;27;45949;-75
2022/02/26 03:29:55;;;;;;;;;42.25;40.00;;;;;-149.00;100.00;66333.84;5102632;27;45218;-74
2022/02/26 03:32:20;;;;;;;;;35.00;34.00;;;;;-149.00;100.00;66333.84;5102716;27;45271;-75
2022/02/26 03:34:46;;;;;;;;;37.00;34.50;;;;;-149.00;100.00;66333.84;5102429;27;45299;-74
2022/02/26 03:37:12;;;;;;;;;29.50;26.75;;;;;-149.00;100.00;66333.84;5101712;27;46309;-74
2022/02/26 03:39:38;;;;;;;;;25.00;22.00;;;;;-149.00;100.00;66333.84;5081876;28;45312;-74
2022/02/26 03:42:05;;;;;;;;;27.75;26.25;;;;;-149.00;100.00;66333.84;5082206;28;45304;-75
2022/02/26 03:44:32;;;;;;;;;17.50;17.50;;;;;-149.00;100.00;66333.84;5082159;28;45359;-75
2022/02/26 03:46:58;;;;;;;;;23.50;22.25;;;;;-149.00;100.00;66333.84;5082980;28;45540;-74
2022/02/26 03:49:26;;;;;;;;;22.00;18.75;;;;;-149.00;100.00;66333.84;5083556;28;45218;-74
2022/02/26 03:51:51;;;;;;;;;21.00;20.75;;;;;-149.00;100.00;66333.84;5084280;28;45455;-75
2022/02/26 03:54:17;;;;;;;;;15.75;15.75;;;;;-149.00;100.00;66333.84;5084616;28;45366;-74
2022/02/26 03:56:42;;;;;;;;;30.75;27.75;;;;;-149.00;100.00;66333.84;5086753;28;45330;-74
2022/02/26 03:59:08;;;;;;;;;32.75;29.75;;;;;-149.00;100.00;66333.84;5087350;28;45395;-73
2022/02/26 04:01:34;;;;;;;;;33.75;32.00;;;;;-149.00;100.00;66333.84;5087703;28;45318;-74
2022/02/26 04:04:00;;;;;;;;;30.50;30.00;;;;;-149.00;100.00;66333.84;5088565;28;45485;-74
2022/02/26 04:06:25;;;;;;;;;29.25;25.75;;;;;-149.00;100.00;66333.84;5088879;28;45366;-74
2022/02/26 04:08:51;;;;;;;;;35.75;30.50;;;;;-149.00;100.00;66333.84;5089467;28;45307;-74
2022/02/26 04:11:16;;;;;;;;;27.00;26.00;;;;;-149.00;100.00;66333.84;5088869;28;45746;-74
2022/02/26 04:13:42;;;;;;;;;31.75;28.25;;;;;-149.00;100.00;66333.84;5089018;28;45475;-74
2022/02/26 04:16:07;;;;;;;;;34.75;30.25;;;;;-149.00;100.00;66333.84;5089486;28;45294;-75
2022/02/26 04:18:33;;;;;;;;;31.50;30.50;;;;;-149.00;100.00;66333.84;5089869;28;45210;-75
2022/02/26 04:20:58;;;;;;;;;26.25;23.00;;;;;-149.00;100.00;66333.84;5091108;28;45367;-74
2022/02/26 04:23:24;;;;;;;;;22.00;21.00;;;;;-149.00;100.00;66333.84;5090125;28;45455;-74
2022/02/26 04:25:49;;;;;;;;;25.00;22.00;;;;;-149.00;100.00;66333.84;5091025;28;45337;-74
2022/02/26 04:28:15;;;;;;;;;21.75;21.50;;;;;-149.00;100.00;66333.84;5092813;28;45339;-74
2022/02/26 04:30:40;;;;;;;;;21.00;20.25;;;;;-149.00;100.00;66333.84;5092740;28;45612;-74
2022/02/26 04:33:08;;;;;;;;;25.25;23.00;;;;;-149.00;100.00;66333.84;5093145;28;45510;-74
2022/02/26 04:35:34;;;;;;;;;20.75;20.25;;;;;-149.00;100.00;66333.84;5093719;28;45399;-74
2022/02/26 04:38:00;;;;;;;;;23.75;21.00;;;;;-149.00;100.00;66333.84;5100640;27;44742;-75
2022/02/26 04:40:25;;;;;;;;;23.50;23.00;;;;;-149.00;100.00;66333.84;5114251;27;45313;-75
2022/02/26 04:42:51;;;;;;;;;21.25;20.00;;;;;-149.00;100.00;66333.84;5114547;27;45311;-75
2022/02/26 04:45:16;;;;;;;;;15.75;11.00;;;;;-149.00;100.00;66333.84;5114979;27;46129;-75
2022/02/26 04:47:44;;;;;;;;;21.25;20.25;;;;;-149.00;100.00;66333.84;5113861;27;45207;-75
2022/02/26 04:50:12;;;;;;;;;22.25;21.00;;;;;-149.00;100.00;66333.84;5113075;27;45257;-75
2022/02/26 04:52:39;;;;;;;;;21.25;19.50;;;;;-149.00;100.00;66333.84;5114262;27;44702;-75
2022/02/26 04:55:05;;;;;;;;;21.25;18.25;;;;;-149.00;100.00;66333.84;5114445;27;45306;-75
2022/02/26 04:57:30;;;;;;;;;19.75;19.75;;;;;-149.00;100.00;66333.84;5114645;27;45406;-74
2022/02/26 04:59:56;;;;;;;;;23.50;20.25;;;;;-149.00;100.00;66333.84;5114726;27;45339;-75
2022/02/26 05:02:21;;;;;;;;;20.50;18.50;;;;;-149.00;100.00;66333.84;5113785;27;45655;-74
2022/02/26 05:04:47;;;;;;;;;21.75;20.75;;;;;-149.00;100.00;66333.84;5114138;27;46273;-75
2022/02/26 05:07:15;;;;;;;;;22.50;20.25;;;;;-149.00;100.00;66333.84;5095710;27;45381;-75
2022/02/26 05:09:41;;;;;;;;;31.25;24.50;;;;;-149.00;100.00;66333.84;5114512;27;44820;-74
2022/02/26 05:12:07;;;;;;;;;28.75;26.25;;;;;-149.00;100.00;66333.84;5114150;27;44850;-74
2022/02/26 05:14:33;;;;;;;;;30.25;27.00;;;;;-149.00;100.00;66333.84;5114319;27;45484;-75
2022/02/26 05:16:58;;;;;;;;;29.25;25.75;;;;;-149.00;100.00;66333.84;5114196;27;44695;-75
2022/02/26 05:19:23;;;;;;;;;16.25;12.75;;;;;-149.00;100.00;66333.84;5108340;27;44836;-75
2022/02/26 05:21:49;;;;;;;;;20.00;14.50;;;;;-149.00;100.00;66333.84;5091925;27;45877;-74
2022/02/26 05:24:15;;;;;;;;;20.00;18.25;;;;;-149.00;100.00;66333.84;5091581;28;45476;-75
2022/02/26 05:26:41;;;;;;;;;20.00;19.75;;;;;-149.00;100.00;66333.84;5091427;27;45247;-75
2022/02/26 05:29:06;;;;;;;;;20.25;20.00;;;;;-149.00;100.00;66333.84;5092398;27;45341;-74
2022/02/26 05:31:32;;;;;;;;;25.50;19.25;;;;;-149.00;100.00;66333.84;5090269;27;45713;-74
2022/02/26 05:33:57;;;;;;;;;25.50;22.75;;;;;-149.00;100.00;66333.84;5090551;27;45266;-74
2022/02/26 05:36:22;;;;;;;;;19.50;16.25;;;;;-149.00;100.00;66333.84;5091355;27;45191;-75
2022/02/26 05:38:48;;;;;;;;;23.75;20.00;;;;;-149.00;100.00;66333.84;5106168;27;45149;-75
2022/02/26 05:41:13;;;;;;;;;22.75;20.50;;;;;-149.00;100.00;66333.84;5110892;27;45358;-74
2022/02/26 05:43:38;;;;;;;;;23.00;23.00;;;;;-149.00;100.00;66333.84;5110631;27;45251;-75
2022/02/26 05:46:04;;;;;;;;;27.75;27.75;;;;;-149.00;100.00;66333.84;5110147;27;45253;-75
2022/02/26 05:48:29;;;;;;;;;27.00;23.25;;;;;-149.00;100.00;66333.84;5108409;27;45764;-74
2022/02/26 05:50:56;;;;;;;;;28.75;24.50;;;;;-149.00;100.00;66333.84;5105664;27;45143;-74
2022/02/26 05:53:22;;;;;;;;;24.25;22.50;;;;;-149.00;100.00;66333.84;5105804;27;46103;-74
2022/02/26 05:55:47;;;;;;;;;23.75;23.75;;;;;-149.00;100.00;66333.84;5105838;27;45333;-74
2022/02/26 05:58:13;;;;;;;;;27.00;22.00;;;;;-149.00;100.00;66333.84;5087476;27;45287;-76
2022/02/26 06:00:38;;;;;;;;;20.25;19.50;;;;;-149.00;100.00;66333.84;5113850;27;45330;-75
2022/02/26 06:03:04;;;;;;;;;25.00;23.00;;;;;-149.00;100.00;66333.84;5095520;27;45913;-74
2022/02/26 06:05:29;;;;;;;;;26.00;26.00;;;;;-149.00;100.00;66333.84;5114647;27;44695;-74
2022/02/26 06:07:55;;;;;;;;;26.50;24.50;;;;;-149.00;100.00;66333.84;5118382;27;44693;-74
2022/02/26 06:10:20;;;;;;;;;23.00;23.00;;;;;-149.00;100.00;66333.84;5119592;27;45529;-75
2022/02/26 06:12:45;;;;;;;;;21.75;20.75;;;;;-149.00;100.00;66333.84;5119442;27;46218;-74
2022/02/26 06:15:11;;;;;;;;;26.00;23.75;;;;;-149.00;100.00;66333.84;5120539;27;45240;-76
2022/02/26 06:17:37;;;;;;;;;26.25;25.50;;;;;-149.00;100.00;66333.84;5124755;27;45381;-75
2022/02/26 06:20:04;;;;;;;;;26.25;23.50;;;;;-149.00;100.00;66333.84;5113344;27;46453;-75
2022/02/26 06:22:29;;;;;;;;;28.25;24.50;;;;;-149.00;100.00;66333.84;5123520;27;46661;-75
2022/02/26 06:24:55;;;;;;;;;27.25;23.75;;;;;-149.00;100.00;66333.84;5116133;27;45220;-75
2022/02/26 06:27:20;;;;;;;;;23.00;22.25;;;;;-149.00;100.00;66333.84;5114789;27;45233;-75
2022/02/26 06:29:46;;;;;;;;;42.25;38.50;;;;;-149.00;100.00;66333.84;5110895;27;45377;-81
2022/02/26 06:32:11;;;;;;;;;49.00;42.25;;;;;-149.00;100.00;66333.84;5100767;27;45566;-80
2022/02/26 06:34:36;;;;;;;;;28.50;25.75;;;;;-149.00;100.00;66333.84;5100207;27;45311;-82
2022/02/26 06:37:02;;;;;;;;;25.25;25.25;;;;;-149.00;100.00;66333.84;5100543;27;45576;-84
2022/02/26 06:39:27;;;;;;;;;33.00;28.75;;;;;-149.00;100.00;66333.84;5099418;27;45528;-83
2022/02/26 06:41:53;;;;;;;;;32.25;28.50;;;;;-149.00;100.00;66333.84;5098281;27;46880;-84
2022/02/26 06:44:18;;;;;;;;;29.50;25.00;;;;;-149.00;100.00;66333.84;5081356;27;45328;-83
2022/02/26 06:46:45;;;;;;;;;26.00;25.00;;;;;-149.00;100.00;66333.84;5099850;27;45239;-84
2022/02/26 06:49:11;;;;;;;;;35.50;35.25;;;;;-149.00;100.00;66333.84;5099415;27;45500;-83
2022/02/26 06:51:36;;;;;;;;;36.50;35.25;;;;;-149.00;100.00;66333.84;5099495;27;45631;-84
2022/02/26 06:54:02;;;;;;;;;29.50;29.50;;;;;-149.00;100.00;66333.84;5099731;27;45326;-82
2022/02/26 06:56:27;;;;;;;;;27.00;27.00;;;;;-149.00;100.00;66333.84;5099761;27;45446;-83
2022/02/26 06:58:53;;;;;;;;;32.50;29.25;;;;;-149.00;100.00;66333.84;5099705;27;45300;-84
2022/02/26 07:01:20;;;;;;;;;29.25;29.25;;;;;-149.00;100.00;66333.84;5082578;27;48523;-85
2022/02/26 07:03:45;;;;;;;;;20.00;16.75;;;;;-149.00;100.00;66333.84;5090055;27;45938;-85
2022/02/26 07:06:10;;;;;;;;;26.50;26.25;;;;;-149.00;100.00;66333.84;5106914;27;45299;-86
2022/02/26 07:08:36;;;;;;;;;28.00;26.50;;;;;-149.00;100.00;66333.84;5106823;27;45344;-84
2022/02/26 07:11:01;;;;;;;;;35.50;31.25;;;;;-149.00;100.00;66333.84;5103777;27;47007;-85
2022/02/26 07:13:27;;;;;;;;;28.50;27.75;;;;;-149.00;100.00;66333.84;5086564;27;45259;-83
2022/02/26 07:15:52;;;;;;;;;29.00;25.25;;;;;-149.00;100.00;66333.84;5103124;27;45271;-81
2022/02/26 07:18:18;;;;;;;;;16.00;14.25;;;;;-149.00;100.00;66333.84;5107214;27;45417;-80
2022/02/26 07:20:44;;;;;;;;;24.50;22.25;;;;;-149.00;100.00;66333.84;5107839;27;45421;-80
2022/02/26 07:23:10;;;;;;;;;28.25;28.00;;;;;-149.00;100.00;66333.84;5123299;27;45726;-79
2022/02/26 07:25:35;;;;;;;;;29.50;28.50;;;;;-149.00;100.00;66333.84;5109877;27;45434;-82
2022/02/26 07:28:00;;;;;;;;;36.50;34.50;;;;;-149.00;100.00;66333.84;5101640;27;45274;-81
2022/02/26 07:30:26;;;;;;;;;30.00;26.75;;;;;-149.00;100.00;66333.84;5101793;27;45261;-81
2022/02/26 07:32:52;;;;;;;;;38.75;33.00;;;;;-149.00;100.00;66333.84;5101684;27;45264;-81
2022/02/26 07:35:17;;;;;;;;;28.75;25.50;;;;;-149.00;100.00;66333.84;5113252;27;45311;-81
2022/02/26 07:37:43;;;;;;;;;30.25;27.25;;;;;-149.00;100.00;66333.84;5106806;27;47148;-82
2022/02/26 07:40:12;;;;;;;;;34.50;30.75;;;;;-149.00;100.00;66333.84;5105117;27;46172;-80
2022/02/26 07:42:37;;;;;;;;;35.25;30.50;;;;;-149.00;100.00;66333.84;5122892;27;45447;-79
2022/02/26 07:45:04;;;;;;;;;35.75;35.00;;;;;-149.00;100.00;66333.84;5122904;27;45337;-80
2022/02/26 07:47:30;;;;;;;;;34.75;31.75;;;;;-149.00;100.00;66333.84;5122766;27;45359;-79
2022/02/26 07:49:56;;;;;;;;;40.75;32.75;;;;;-149.00;100.00;66333.84;5122438;27;45342;-80
2022/02/26 07:52:22;;;;;;;;;35.25;33.75;;;;;-149.00;100.00;66333.84;5122687;27;45350;-79
2022/02/26 07:54:51;;;;;;;;;34.25;32.00;;;;;-149.00;100.00;66333.84;5122694;27;45177;-78
2022/02/26 07:57:17;;;;;;;;;32.00;32.00;;;;;-149.00;100.00;66333.84;5122585;27;45343;-78
2022/02/26 07:59:42;;;;;;;;;29.50;28.25;;;;;-149.00;100.00;66333.84;5122776;27;45925;-78
2022/02/26 08:02:08;;;;;;;;;32.00;31.25;;;;;-149.00;100.00;66333.84;5122470;27;45420;-79
2022/02/26 08:04:34;;;;;;;;;25.00;23.75;;;;;-149.00;100.00;66333.84;5122481;27;45253;-79
2022/02/26 08:06:59;;;;;;;;;38.50;34.50;;;;;-149.00;100.00;66333.84;5122495;27;45519;-78
2022/02/26 08:09:26;;;;;;;;;32.00;29.50;;;;;-149.00;100.00;66333.84;5098402;27;45458;-80
2022/02/26 08:11:51;;;;;;;;;31.00;30.25;;;;;-149.00;100.00;66333.84;5100141;27;45525;-78
2022/02/26 08:14:17;;;;;;;;;26.75;26.25;;;;;-149.00;100.00;66333.84;5100143;27;45503;-79
2022/02/26 08:16:42;;;;;;;;;32.25;30.50;;;;;-149.00;100.00;66333.84;5121961;27;45778;-78
2022/02/26 08:19:07;;;;;;;;;31.50;28.50;;;;;-149.00;100.00;66333.84;5104651;27;45277;-79
2022/02/26 08:21:34;;;;;;;;;28.25;28.25;;;;;-149.00;100.00;66333.84;5116789;27;45409;-78
2022/02/26 08:24:00;;;;;;;;;33.50;31.00;;;;;-149.00;100.00;66333.84;5122122;27;45334;-78
2022/02/26 08:26:25;;;;;;;;;22.50;22.00;;;;;-149.00;100.00;66333.84;5122194;27;45335;-79
2022/02/26 08:28:51;;;;;;;;;33.75;32.75;;;;;-149.00;100.00;66333.84;5121650;27;45384;-79
2022/02/26 08:31:16;;;;;;;;;28.50;27.50;;;;;-149.00;100.00;66333.84;5121899;27;45361;-80
2022/02/26 08:33:41;;;;;;;;;26.00;24.75;;;;;-149.00;100.00;66333.84;5122115;27;45358;-79
2022/02/26 08:36:07;;;;;;;;;26.25;26.00;;;;;-149.00;100.00;66333.84;5121966;27;45330;-79
2022/02/26 08:38:33;;;;;;;;;27.00;22.00;;;;;-149.00;100.00;66333.84;5118913;27;45446;-82
2022/02/26 08:48:54;;;;;;;;;;;;;;;;;;;;;
2022/02/26 08:51:51;;;;;;;;;26.00;22.00;;;;;-149.00;100.00;66333.84;5013979;28;73403;-78
2022/02/26 08:54:16;;;;;;;;;18.50;17.00;;;;;-149.00;100.00;66333.84;5013572;28;45441;-78
2022/02/26 08:56:42;;;;;;;;;13.50;13.50;;;;;-149.00;100.00;66333.84;5087306;27;45458;-77
2022/02/26 08:59:07;;;;;;;;;14.50;13.25;;;;;-149.00;100.00;66333.84;5099261;27;45380;-78
2022/02/26 09:01:33;;;;;;;;;18.00;16.75;;;;;-149.00;100.00;66333.84;5080678;27;46342;-77
2022/02/26 09:03:58;;;;;;;;;12.25;12.25;;;;;-149.00;100.00;66333.84;5080311;27;45438;-77
2022/02/26 09:06:24;;;;;;;;;9.00;9.00;;;;;-149.00;100.00;66333.84;5096821;27;45338;-77
2022/02/26 09:08:50;;;;;;;;;12.25;11.75;;;;;-149.00;100.00;66333.84;5099199;27;45382;-76
2022/02/26 09:11:16;;;;;;;;;14.50;13.25;;;;;-149.00;100.00;66333.84;5098840;27;45549;-78
2022/02/26 09:13:44;;;;;;;;;12.50;11.50;;;;;-149.00;100.00;66333.84;5096116;27;45295;-77
2022/02/26 09:16:14;;;;;;;;;12.50;10.50;;;;;-149.00;100.00;66333.84;5100513;27;45342;-76
2022/02/26 09:18:40;;;;;;;;;14.00;14.00;;;;;-149.00;100.00;66333.84;5088771;27;45501;-76
2022/02/26 09:21:06;;;;;;;;;13.00;10.25;;;;;-149.00;100.00;66333.84;5087619;27;46279;-77
2022/02/26 09:23:33;;;;;;;;;11.25;9.50;;;;;-149.00;100.00;66333.84;5091811;27;45486;-76
2022/02/26 09:25:59;;;;;;;;;11.25;9.50;;;;;-149.00;100.00;66333.84;5082530;27;45307;-77
2022/02/26 09:28:24;;;;;;;;;8.00;8.00;;;;;-149.00;100.00;66333.84;5090437;27;45402;-78
2022/02/26 09:30:50;;;;;;;;;11.00;8.25;;;;;-149.00;100.00;66333.84;5092187;27;45247;-82
2022/02/26 09:33:15;;;;;;;;;14.00;8.00;;;;;-149.00;100.00;66333.84;5088138;27;45271;-79
2022/02/26 09:35:41;;;;;;;;;9.25;8.00;;;;;-149.00;100.00;66333.84;5089484;27;45528;-79
2022/02/26 09:38:06;;;;;;;;;8.67;8.67;;;;;-149.00;100.00;66333.84;5089091;27;45506;-78
2022/02/26 09:40:32;;;;;;;;;9.00;9.00;;;;;-149.00;100.00;66333.84;5090553;27;46343;-82
2022/02/26 09:42:59;;;;;;;;;7.00;7.00;;;;;-149.00;100.00;66333.84;5091900;27;45446;-80
2022/02/26 09:45:25;;;;;;;;;9.50;9.25;;;;;-149.00;100.00;66333.84;5088655;27;45354;-80
2022/02/26 09:47:50;;;;;;;;;8.00;8.00;;;;;-149.00;100.00;66333.84;5093903;27;45436;-80
2022/02/26 09:50:16;;;;;;;;;10.00;8.00;;;;;-149.00;100.00;66333.84;5083861;27;46680;-81
2022/02/26 09:52:42;;;;;;;;;10.00;9.33;;;;;-149.00;100.00;66333.84;5089230;27;45356;-80
2022/02/26 09:55:09;;;;;;;;;7.67;7.67;;;;;-149.00;100.00;66333.84;5090984;27;45498;-82
2022/02/26 09:57:35;;;;;;;;;11.00;10.33;;;;;-149.00;100.00;66333.84;5107023;27;45424;-80
2022/02/26 10:00:01;;;;;;;;;8.67;7.33;;;;;-149.00;100.00;66333.84;5091677;27;46465;-81
2022/02/26 10:02:35;;;;;;;;;12.25;10.50;;;;;-149.00;100.00;66333.84;5085800;27;45415;-80
2022/02/26 10:05:03;;;;;;;;;9.00;8.67;;;;;-149.00;100.00;66333.84;5086147;27;45360;-80
2022/02/26 10:07:32;;;;;;;;;9.67;8.67;;;;;-149.00;100.00;66333.84;5087778;27;45382;-79
2022/02/26 10:09:58;;;;;;;;;10.00;7.67;;;;;-149.00;100.00;66333.84;5087166;27;45488;-81
2022/02/26 10:12:55;;;;;;;;;8.67;7.00;;;;;-149.00;100.00;66333.84;5088081;27;46612;-79
2022/02/26 10:15:28;;;;;;;;;7.33;7.33;;;;;-149.00;100.00;66333.84;5083461;27;45426;-77
2022/02/26 10:18:06;;;;;;;;;6.33;5.00;;;;;-149.00;100.00;66333.84;5088847;27;45543;-83
2022/02/26 10:20:34;;;;;;;;;10.33;9.33;;;;;-149.00;100.00;66333.84;5079233;27;46982;-78
2022/02/26 10:23:02;;;;;;;;;9.67;7.67;;;;;-149.00;100.00;66333.84;5080113;27;45483;-79
2022/02/26 10:25:30;;;;;;;;;11.00;8.00;;;;;-149.00;100.00;66333.84;5071836;27;45380;-79
2022/02/26 10:27:59;;;;;;;;;8.33;7.00;;;;;-149.00;100.00;66333.84;5082114;27;45357;-80
2022/02/26 10:30:28;;;;;;;;;9.00;9.00;;;;;-149.00;100.00;66333.84;5079760;27;45525;-78
2022/02/26 10:33:25;;;;;;;;;11.00;6.00;;;;;-149.00;100.00;66333.84;5073372;27;45316;-80
2022/02/26 10:35:56;;;;;;;;;8.67;6.67;;;;;-149.00;100.00;66333.84;5083762;27;45329;-79
2022/02/26 10:38:27;;;;;;;;;9.00;7.33;;;;;-149.00;100.00;66333.84;5083482;27;45591;-78
2022/02/26 10:41:04;;;;;;;;;12.33;10.67;;;;;-149.00;100.00;66333.84;5079921;27;46466;-77
2022/02/26 10:43:41;;;;;;;;;7.00;7.00;;;;;-149.00;100.00;66333.84;5082015;27;45600;-79
2022/02/26 10:46:30;;;;;;;;;11.67;10.33;;;;;-149.00;100.00;66333.84;5093100;27;45421;-79
2022/02/26 10:49:09;;;;;;;;;7.67;6.67;;;;;-149.00;100.00;66333.84;5079846;27;45327;-78
2022/02/26 10:51:41;;;;;;;;;8.00;7.00;;;;;-149.00;100.00;66333.84;5081883;27;45445;-78
2022/02/26 12:04:39;;;;;;;;;;;;;;;;;;;;;
2022/02/26 12:08:04;;;;;;;;;;;;;;;;;;;;;
2022/02/26 12:11:43;;;;;;;;;;;;;;;;;;;;;
2022/02/26 12:26:01;;;;;;;;;;;;;;;;;;;;;
2022/02/26 13:46:42;;;;;;;;;;;;;;;;;;;;;
2022/02/26 13:50:13;;;;;;;;;;;;;;;;;;;;;
2022/02/26 13:53:17;;;;;;;;;7.33;5.00;;;;;-149.00;100.00;66333.84;4889015;28;74798;-79
2022/02/26 14:13:36;;;;;;;;;3.00;3.00;;;;;-149.00;100.00;66333.84;4910386;28;45408;-77